sensor_id;sensor_type;location;lat;lon;timestamp;pressure;altitude;pressure_sealevel;temperature;humidity
9893;BME280;4985;49.092;8.542;2022-10-31T00:00:13;99766.19;;;20.88;52.69
9893;BME280;4985;49.092;8.542;2022-10-31T00:02:40;99776.06;;;20.87;52.69
9893;BME280;4985;49.092;8.542;2022-10-31T00:05:07;99769.91;;;20.87;52.68
9893;BME280;4985;49.092;8.542;2022-10-31T00:07:33;99765.00;;;20.84;52.70
9893;BME280;4985;49.092;8.542;2022-10-31T00:10:01;99762.69;;;20.87;52.71
9893;BME280;4985;49.092;8.542;2022-10-31T00:12:28;99758.59;;;20.85;52.69
9893;BME280;4985;49.092;8.542;2022-10-31T00:14:54;99759.41;;;20.85;52.69
9893;BME280;4985;49.092;8.542;2022-10-31T00:17:21;99755.09;;;20.84;52.70
9893;BME280;4985;49.092;8.542;2022-10-31T00:19:48;99767.44;;;20.85;52.69
9893;BME280;4985;49.092;8.542;2022-10-31T00:22:14;99761.28;;;20.85;52.70
9893;BME280;4985;49.092;8.542;2022-10-31T00:24:41;99761.06;;;20.86;52.69
9893;BME280;4985;49.092;8.542;2022-10-31T00:27:09;99765.81;;;20.84;52.70
9893;BME280;4985;49.092;8.542;2022-10-31T00:29:35;99762.09;;;20.85;52.69
9893;BME280;4985;49.092;8.542;2022-10-31T00:32:02;99751.38;;;20.85;52.67
9893;BME280;4985;49.092;8.542;2022-10-31T00:34:29;99755.94;;;20.85;52.66
9893;BME280;4985;49.092;8.542;2022-10-31T00:36:55;99753.44;;;20.83;52.69
9893;BME280;4985;49.092;8.542;2022-10-31T00:39:22;99758.78;;;20.83;52.68
9893;BME280;4985;49.092;8.542;2022-10-31T00:41:48;99760.47;;;20.84;52.68
9893;BME280;4985;49.092;8.542;2022-10-31T00:44:16;99762.50;;;20.82;52.68
9893;BME280;4985;49.092;8.542;2022-10-31T00:46:43;99763.31;;;20.83;52.69
9893;BME280;4985;49.092;8.542;2022-10-31T00:49:09;99758.78;;;20.83;52.69
9893;BME280;4985;49.092;8.542;2022-10-31T00:51:36;99765.19;;;20.82;52.69
9893;BME280;4985;49.092;8.542;2022-10-31T00:54:03;99759.84;;;20.82;52.69
9893;BME280;4985;49.092;8.542;2022-10-31T00:56:30;99761.47;;;20.83;52.69
9893;BME280;4985;49.092;8.542;2022-10-31T00:58:56;99757.16;;;20.82;52.69
9893;BME280;4985;49.092;8.542;2022-10-31T01:01:24;99764.37;;;20.82;52.69
9893;BME280;4985;49.092;8.542;2022-10-31T01:03:51;99751.00;;;20.82;52.70
9893;BME280;4985;49.092;8.542;2022-10-31T01:06:17;99745.84;;;20.80;52.70
9893;BME280;4985;49.092;8.542;2022-10-31T01:08:46;99750.16;;;20.81;52.68
9893;BME280;4985;49.092;8.542;2022-10-31T01:11:15;99753.66;;;20.82;52.68
9893;BME280;4985;49.092;8.542;2022-10-31T01:13:42;99753.28;;;20.78;52.67
9893;BME280;4985;49.092;8.542;2022-10-31T01:16:12;99757.37;;;20.81;52.70
9893;BME280;4985;49.092;8.542;2022-10-31T01:18:40;99760.88;;;20.81;52.68
9893;BME280;4985;49.092;8.542;2022-10-31T01:21:08;99762.94;;;20.79;52.69
9893;BME280;4985;49.092;8.542;2022-10-31T01:23:35;99754.94;;;20.79;52.68
9893;BME280;4985;49.092;8.542;2022-10-31T01:26:06;99763.78;;;20.80;52.70
9893;BME280;4985;49.092;8.542;2022-10-31T01:28:33;99773.66;;;20.79;52.71
9893;BME280;4985;49.092;8.542;2022-10-31T01:31:02;99760.28;;;20.79;52.69
9893;BME280;4985;49.092;8.542;2022-10-31T01:33:28;99755.97;;;20.78;52.69
9893;BME280;4985;49.092;8.542;2022-10-31T01:35:57;99764.81;;;20.79;52.71
9893;BME280;4985;49.092;8.542;2022-10-31T01:38:23;99761.31;;;20.78;52.71
9893;BME280;4985;49.092;8.542;2022-10-31T01:40:50;99757.81;;;20.78;52.69
9893;BME280;4985;49.092;8.542;2022-10-31T01:43:17;99770.38;;;20.77;52.69
9893;BME280;4985;49.092;8.542;2022-10-31T01:45:50;99773.88;;;20.78;52.71
9893;BME280;4985;49.092;8.542;2022-10-31T01:48:19;99769.34;;;20.78;52.69
9893;BME280;4985;49.092;8.542;2022-10-31T01:50:48;99773.06;;;20.77;52.69
9893;BME280;4985;49.092;8.542;2022-10-31T01:53:20;99757.00;;;20.77;52.68
9893;BME280;4985;49.092;8.542;2022-10-31T01:55:47;99765.25;;;20.76;52.68
9893;BME280;4985;49.092;8.542;2022-10-31T01:58:16;99758.88;;;20.77;52.69
9893;BME280;4985;49.092;8.542;2022-10-31T02:00:48;99753.50;;;20.77;52.69
9893;BME280;4985;49.092;8.542;2022-10-31T02:03:16;99757.22;;;20.76;52.69
9893;BME280;4985;49.092;8.542;2022-10-31T02:05:44;99758.03;;;20.76;52.70
9893;BME280;4985;49.092;8.542;2022-10-31T02:08:14;99752.69;;;20.76;52.68
9893;BME280;4985;49.092;8.542;2022-10-31T02:10:44;99752.69;;;20.76;52.69
9893;BME280;4985;49.092;8.542;2022-10-31T02:13:11;99761.75;;;20.75;52.69
9893;BME280;4985;49.092;8.542;2022-10-31T02:15:40;99756.41;;;20.75;52.69
9893;BME280;4985;49.092;8.542;2022-10-31T02:18:07;99753.97;;;20.74;52.69
9893;BME280;4985;49.092;8.542;2022-10-31T02:20:41;99753.72;;;20.75;52.68
9893;BME280;4985;49.092;8.542;2022-10-31T02:23:33;99760.94;;;20.75;52.67
9893;BME280;4985;49.092;8.542;2022-10-31T02:26:20;99745.53;;;20.70;52.68
9893;BME280;4985;49.092;8.542;2022-10-31T02:29:06;99760.13;;;20.74;52.69
9893;BME280;4985;49.092;8.542;2022-10-31T02:31:42;99753.12;;;20.73;52.69
9893;BME280;4985;49.092;8.542;2022-10-31T02:34:14;99755.81;;;20.73;52.70
9893;BME280;4985;49.092;8.542;2022-10-31T02:36:48;99750.66;;;20.72;52.70
9893;BME280;4985;49.092;8.542;2022-10-31T02:39:23;99756.81;;;20.72;52.71
9893;BME280;4985;49.092;8.542;2022-10-31T02:41:58;99753.31;;;20.72;52.69
9893;BME280;4985;49.092;8.542;2022-10-31T02:44:33;99753.12;;;20.73;52.68
9893;BME280;4985;49.092;8.542;2022-10-31T02:47:05;99754.38;;;20.71;52.69
9893;BME280;4985;49.092;8.542;2022-10-31T02:49:39;99749.84;;;20.71;52.70
9893;BME280;4985;49.092;8.542;2022-10-31T02:52:17;99747.16;;;20.71;52.70
9893;BME280;4985;49.092;8.542;2022-10-31T02:54:46;99744.47;;;20.71;52.70
9893;BME280;4985;49.092;8.542;2022-10-31T02:57:13;99749.84;;;20.71;52.70
9893;BME280;4985;49.092;8.542;2022-10-31T02:59:46;99748.19;;;20.70;52.69
9893;BME280;4985;49.092;8.542;2022-10-31T03:02:34;99750.88;;;20.70;52.68
9893;BME280;4985;49.092;8.542;2022-10-31T03:05:12;99750.06;;;20.70;52.70
9893;BME280;4985;49.092;8.542;2022-10-31T03:07:50;99741.22;;;20.69;52.69
9893;BME280;4985;49.092;8.542;2022-10-31T03:10:25;99747.00;;;20.66;52.69
9893;BME280;4985;49.092;8.542;2022-10-31T03:12:59;99745.75;;;20.69;52.70
9893;BME280;4985;49.092;8.542;2022-10-31T03:15:31;99754.81;;;20.68;52.70
9893;BME280;4985;49.092;8.542;2022-10-31T03:18:03;99752.13;;;20.68;52.70
9893;BME280;4985;49.092;8.542;2022-10-31T03:20:36;99750.50;;;20.67;52.72
9893;BME280;4985;49.092;8.542;2022-10-31T03:23:06;99758.53;;;20.67;52.72
9893;BME280;4985;49.092;8.542;2022-10-31T03:25:35;99760.38;;;20.66;52.73
9893;BME280;4985;49.092;8.542;2022-10-31T03:28:04;99755.03;;;20.66;52.72
9893;BME280;4985;49.092;8.542;2022-10-31T03:30:33;99757.72;;;20.66;52.72
9893;BME280;4985;49.092;8.542;2022-10-31T03:33:06;99753.41;;;20.65;52.74
9893;BME280;4985;49.092;8.542;2022-10-31T03:35:36;99755.25;;;20.64;52.73
9893;BME280;4985;49.092;8.542;2022-10-31T03:38:03;99757.72;;;20.66;52.73
9893;BME280;4985;49.092;8.542;2022-10-31T03:40:31;99758.75;;;20.65;52.70
9893;BME280;4985;49.092;8.542;2022-10-31T03:43:01;99754.44;;;20.64;52.72
9893;BME280;4985;49.092;8.542;2022-10-31T03:45:30;99758.97;;;20.63;52.72
9893;BME280;4985;49.092;8.542;2022-10-31T03:47:58;99752.56;;;20.64;52.71
9893;BME280;4985;49.092;8.542;2022-10-31T03:50:30;99749.09;;;20.64;52.69
9893;BME280;4985;49.092;8.542;2022-10-31T03:53:03;99754.44;;;20.64;52.71
9893;BME280;4985;49.092;8.542;2022-10-31T03:55:37;99753.62;;;20.63;52.71
9893;BME280;4985;49.092;8.542;2022-10-31T03:58:09;99745.81;;;20.62;52.72
9893;BME280;4985;49.092;8.542;2022-10-31T04:00:38;99735.94;;;20.62;52.71
9893;BME280;4985;49.092;8.542;2022-10-31T04:03:10;99737.78;;;20.62;52.73
9893;BME280;4985;49.092;8.542;2022-10-31T04:05:40;99738.78;;;20.61;52.73
9893;BME280;4985;49.092;8.542;2022-10-31T04:08:14;99745.00;;;20.61;52.73
9893;BME280;4985;49.092;8.542;2022-10-31T04:10:43;99733.44;;;20.61;52.72
9893;BME280;4985;49.092;8.542;2022-10-31T04:13:14;99732.63;;;20.60;52.73
9893;BME280;4985;49.092;8.542;2022-10-31T04:15:42;99729.13;;;20.60;52.75
9893;BME280;4985;49.092;8.542;2022-10-31T04:18:10;99731.00;;;20.59;52.75
9893;BME280;4985;49.092;8.542;2022-10-31T04:20:38;99739.84;;;20.60;52.75
9893;BME280;4985;49.092;8.542;2022-10-31T04:23:15;99732.84;;;20.59;52.73
9893;BME280;4985;49.092;8.542;2022-10-31T04:25:42;99731.00;;;20.59;52.74
9893;BME280;4985;49.092;8.542;2022-10-31T04:28:09;99740.88;;;20.59;52.76
9893;BME280;4985;49.092;8.542;2022-10-31T04:30:35;99738.19;;;20.59;52.75
9893;BME280;4985;49.092;8.542;2022-10-31T04:33:02;99724.81;;;20.59;52.74
9893;BME280;4985;49.092;8.542;2022-10-31T04:35:28;99720.97;;;20.55;52.75
9893;BME280;4985;49.092;8.542;2022-10-31T04:37:55;99734.72;;;20.58;52.74
9893;BME280;4985;49.092;8.542;2022-10-31T04:40:23;99729.34;;;20.58;52.74
9893;BME280;4985;49.092;8.542;2022-10-31T04:42:49;99726.91;;;20.57;52.74
9893;BME280;4985;49.092;8.542;2022-10-31T04:45:16;99734.09;;;20.56;52.75
9893;BME280;4985;49.092;8.542;2022-10-31T04:47:42;99725.28;;;20.56;52.76
9893;BME280;4985;49.092;8.542;2022-10-31T04:50:09;99723.41;;;20.56;52.75
9893;BME280;4985;49.092;8.542;2022-10-31T04:52:38;99723.41;;;20.56;52.75
9893;BME280;4985;49.092;8.542;2022-10-31T04:55:06;99728.97;;;20.55;52.76
9893;BME280;4985;49.092;8.542;2022-10-31T04:57:40;99735.16;;;20.55;52.75
9893;BME280;4985;49.092;8.542;2022-10-31T05:00:07;99727.13;;;20.55;52.75
9893;BME280;4985;49.092;8.542;2022-10-31T05:02:34;99721.78;;;20.55;52.76
9893;BME280;4985;49.092;8.542;2022-10-31T05:05:01;99719.09;;;20.55;52.76
9893;BME280;4985;49.092;8.542;2022-10-31T05:07:28;99712.94;;;20.55;52.76
9893;BME280;4985;49.092;8.542;2022-10-31T05:09:55;99715.59;;;20.55;52.74
9893;BME280;4985;49.092;8.542;2022-10-31T05:12:21;99719.31;;;20.54;52.75
9893;BME280;4985;49.092;8.542;2022-10-31T05:14:49;99722.00;;;20.54;52.75
9893;BME280;4985;49.092;8.542;2022-10-31T05:17:16;99720.38;;;20.53;52.77
9893;BME280;4985;49.092;8.542;2022-10-31T05:19:42;99720.38;;;20.53;52.75
9893;BME280;4985;49.092;8.542;2022-10-31T05:22:09;99713.38;;;20.52;52.78
9893;BME280;4985;49.092;8.542;2022-10-31T05:24:35;99708.03;;;20.52;52.76
9893;BME280;4985;49.092;8.542;2022-10-31T05:27:02;99707.22;;;20.51;52.76
9893;BME280;4985;49.092;8.542;2022-10-31T05:29:29;99702.69;;;20.52;52.76
9893;BME280;4985;49.092;8.542;2022-10-31T05:31:59;99705.34;;;20.52;52.75
9893;BME280;4985;49.092;8.542;2022-10-31T05:34:26;99703.72;;;20.51;52.75
9893;BME280;4985;49.092;8.542;2022-10-31T05:36:52;99704.53;;;20.51;52.75
9893;BME280;4985;49.092;8.542;2022-10-31T05:39:19;99705.56;;;20.50;52.75
9893;BME280;4985;49.092;8.542;2022-10-31T05:41:46;99704.72;;;20.50;52.77
9893;BME280;4985;49.092;8.542;2022-10-31T05:44:12;99704.72;;;20.50;52.76
9893;BME280;4985;49.092;8.542;2022-10-31T05:46:39;99692.41;;;20.49;52.77
9893;BME280;4985;49.092;8.542;2022-10-31T05:49:07;99696.72;;;20.50;52.76
9893;BME280;4985;49.092;8.542;2022-10-31T05:51:33;99700.41;;;20.49;52.76
9893;BME280;4985;49.092;8.542;2022-10-31T05:54:00;99703.09;;;20.49;52.76
9893;BME280;4985;49.092;8.542;2022-10-31T05:56:26;99696.94;;;20.48;52.77
9893;BME280;4985;49.092;8.542;2022-10-31T05:58:53;99692.62;;;20.47;52.77
9893;BME280;4985;49.092;8.542;2022-10-31T06:01:20;99697.16;;;20.47;52.78
9893;BME280;4985;49.092;8.542;2022-10-31T06:03:46;99689.13;;;20.47;52.80
9893;BME280;4985;49.092;8.542;2022-10-31T06:06:14;99688.31;;;20.46;52.76
9893;BME280;4985;49.092;8.542;2022-10-31T06:08:41;99687.50;;;20.46;52.77
9893;BME280;4985;49.092;8.542;2022-10-31T06:11:07;99687.50;;;20.46;52.78
9893;BME280;4985;49.092;8.542;2022-10-31T06:13:34;99688.53;;;20.45;52.78
9893;BME280;4985;49.092;8.542;2022-10-31T06:16:00;99695.50;;;20.46;52.78
9893;BME280;4985;49.092;8.542;2022-10-31T06:18:27;99684.00;;;20.45;52.76
9893;BME280;4985;49.092;8.542;2022-10-31T06:20:53;99688.53;;;20.45;52.75
9893;BME280;4985;49.092;8.542;2022-10-31T06:23:21;99692.84;;;20.46;52.73
9893;BME280;4985;49.092;8.542;2022-10-31T06:25:48;99692.84;;;20.46;52.75
9893;BME280;4985;49.092;8.542;2022-10-31T06:28:15;99695.72;;;20.44;52.76
9893;BME280;4985;49.092;8.542;2022-10-31T06:30:42;99696.56;;;20.45;52.76
9893;BME280;4985;49.092;8.542;2022-10-31T06:33:08;99701.91;;;20.45;52.78
9893;BME280;4985;49.092;8.542;2022-10-31T06:35:35;99701.09;;;20.44;52.75
9893;BME280;4985;49.092;8.542;2022-10-31T06:38:01;99694.91;;;20.44;52.77
9893;BME280;4985;49.092;8.542;2022-10-31T06:40:29;99696.78;;;20.43;52.77
9893;BME280;4985;49.092;8.542;2022-10-31T06:42:57;99703.97;;;20.43;52.77
9893;BME280;4985;49.092;8.542;2022-10-31T06:45:24;99692.88;;;20.39;52.77
9893;BME280;4985;49.092;8.542;2022-10-31T06:47:51;99696.97;;;20.42;52.78
9893;BME280;4985;49.092;8.542;2022-10-31T06:50:19;99695.97;;;20.43;52.77
9893;BME280;4985;49.092;8.542;2022-10-31T06:52:50;99703.16;;;20.42;52.78
9893;BME280;4985;49.092;8.542;2022-10-31T06:55:16;99706.66;;;20.43;52.79
9893;BME280;4985;49.092;8.542;2022-10-31T06:57:51;99696.16;;;20.41;52.79
9893;BME280;4985;49.092;8.542;2022-10-31T07:00:18;99700.69;;;20.41;52.78
9893;BME280;4985;49.092;8.542;2022-10-31T07:02:53;99698.00;;;20.41;52.79
9893;BME280;4985;49.092;8.542;2022-10-31T07:05:19;99702.53;;;20.40;52.79
9893;BME280;4985;49.092;8.542;2022-10-31T07:07:46;99715.09;;;20.40;52.79
9893;BME280;4985;49.092;8.542;2022-10-31T07:10:12;99710.56;;;20.40;52.79
9893;BME280;4985;49.092;8.542;2022-10-31T07:12:39;99714.03;;;20.41;52.80
9893;BME280;4985;49.092;8.542;2022-10-31T07:15:08;99712.59;;;20.38;52.79
9893;BME280;4985;49.092;8.542;2022-10-31T07:17:35;99717.75;;;20.40;52.80
9893;BME280;4985;49.092;8.542;2022-10-31T07:20:02;99717.94;;;20.38;52.83
9893;BME280;4985;49.092;8.542;2022-10-31T07:22:32;99719.81;;;20.37;52.83
9893;BME280;4985;49.092;8.542;2022-10-31T07:24:59;99717.13;;;20.37;52.84
9893;BME280;4985;49.092;8.542;2022-10-31T07:27:25;99710.97;;;20.37;52.84
9893;BME280;4985;49.092;8.542;2022-10-31T07:29:52;99710.97;;;20.37;52.84
9893;BME280;4985;49.092;8.542;2022-10-31T07:32:20;99718.16;;;20.36;52.84
9893;BME280;4985;49.092;8.542;2022-10-31T07:34:46;99710.97;;;20.37;52.85
9893;BME280;4985;49.092;8.542;2022-10-31T07:37:13;99713.84;;;20.35;52.86
9893;BME280;4985;49.092;8.542;2022-10-31T07:39:39;99719.22;;;20.35;52.86
9893;BME280;4985;49.092;8.542;2022-10-31T07:42:06;99719.22;;;20.35;52.86
9893;BME280;4985;49.092;8.542;2022-10-31T07:44:32;99713.03;;;20.35;52.86
9893;BME280;4985;49.092;8.542;2022-10-31T07:46:59;99714.69;;;20.36;52.85
9893;BME280;4985;49.092;8.542;2022-10-31T07:49:27;99721.88;;;20.35;52.87
9893;BME280;4985;49.092;8.542;2022-10-31T07:51:54;99728.25;;;20.34;52.87
9893;BME280;4985;49.092;8.542;2022-10-31T07:54:21;99725.81;;;20.33;52.89
9893;BME280;4985;49.092;8.542;2022-10-31T07:56:47;99722.31;;;20.32;52.90
9893;BME280;4985;49.092;8.542;2022-10-31T07:59:14;99717.78;;;20.33;52.90
9893;BME280;4985;49.092;8.542;2022-10-31T08:01:41;99722.31;;;20.32;52.88
9893;BME280;4985;49.092;8.542;2022-10-31T08:04:07;99725.81;;;20.33;52.90
9893;BME280;4985;49.092;8.542;2022-10-31T08:06:35;99727.66;;;20.32;52.92
9893;BME280;4985;49.092;8.542;2022-10-31T08:09:02;99721.72;;;20.30;52.91
9893;BME280;4985;49.092;8.542;2022-10-31T08:11:28;99723.34;;;20.31;52.92
9893;BME280;4985;49.092;8.542;2022-10-31T08:13:55;99719.87;;;20.31;52.94
9893;BME280;4985;49.092;8.542;2022-10-31T08:16:21;99724.16;;;20.32;52.92
9893;BME280;4985;49.092;8.542;2022-10-31T08:18:48;99713.69;;;20.30;52.92
9893;BME280;4985;49.092;8.542;2022-10-31T08:21:14;99717.41;;;20.29;52.94
9893;BME280;4985;49.092;8.542;2022-10-31T08:23:42;99709.63;;;20.28;52.97
9893;BME280;4985;49.092;8.542;2022-10-31T08:26:09;99714.97;;;20.28;52.98
9893;BME280;4985;49.092;8.542;2022-10-31T08:28:35;99709.81;;;20.26;53.01
9893;BME280;4985;49.092;8.542;2022-10-31T08:31:02;99708.78;;;20.27;53.02
9893;BME280;4985;49.092;8.542;2022-10-31T08:33:28;99709.81;;;20.26;53.04
9893;BME280;4985;49.092;8.542;2022-10-31T08:35:57;99701.78;;;20.26;53.03
9893;BME280;4985;49.092;8.542;2022-10-31T08:38:24;99698.72;;;20.23;53.05
9893;BME280;4985;49.092;8.542;2022-10-31T08:40:52;99691.75;;;20.22;53.07
9893;BME280;4985;49.092;8.542;2022-10-31T08:43:18;99701.19;;;20.24;53.08
9893;BME280;4985;49.092;8.542;2022-10-31T08:45:48;99696.66;;;20.25;53.06
9893;BME280;4985;49.092;8.542;2022-10-31T08:48:16;99696.66;;;20.25;53.04
9893;BME280;4985;49.092;8.542;2022-10-31T08:50:44;99703.84;;;20.24;53.05
9893;BME280;4985;49.092;8.542;2022-10-31T08:53:12;99695.84;;;20.24;53.06
9893;BME280;4985;49.092;8.542;2022-10-31T08:55:40;99693.16;;;20.24;53.07
9893;BME280;4985;49.092;8.542;2022-10-31T08:58:12;99687.81;;;20.24;53.07
9893;BME280;4985;49.092;8.542;2022-10-31T09:00:38;99686.19;;;20.23;53.06
9893;BME280;4985;49.092;8.542;2022-10-31T09:03:09;99684.31;;;20.24;53.06
9893;BME280;4985;49.092;8.542;2022-10-31T09:05:36;99685.12;;;20.24;53.08
9893;BME280;4985;49.092;8.542;2022-10-31T09:08:04;99680.84;;;20.23;53.09
9893;BME280;4985;49.092;8.542;2022-10-31T09:10:32;99683.50;;;20.23;53.10
9893;BME280;4985;49.092;8.542;2022-10-31T09:13:01;99676.31;;;20.24;53.09
9893;BME280;4985;49.092;8.542;2022-10-31T09:15:30;99675.50;;;20.23;53.09
9893;BME280;4985;49.092;8.542;2022-10-31T09:17:57;99680.84;;;20.23;53.08
9893;BME280;4985;49.092;8.542;2022-10-31T09:20:23;99679.78;;;20.24;53.08
9893;BME280;4985;49.092;8.542;2022-10-31T09:22:55;99672.00;;;20.23;53.09
9893;BME280;4985;49.092;8.542;2022-10-31T09:25:22;99675.50;;;20.23;53.09
9893;BME280;4985;49.092;8.542;2022-10-31T09:27:48;99677.34;;;20.23;53.09
9893;BME280;4985;49.092;8.542;2022-10-31T09:30:15;99682.47;;;20.24;53.07
9893;BME280;4985;49.092;8.542;2022-10-31T09:32:43;99671.78;;;20.24;53.05
9893;BME280;4985;49.092;8.542;2022-10-31T09:35:09;99669.91;;;20.25;53.08
9893;BME280;4985;49.092;8.542;2022-10-31T09:37:36;99673.63;;;20.24;53.08
9893;BME280;4985;49.092;8.542;2022-10-31T09:40:03;99682.47;;;20.24;53.07
9893;BME280;4985;49.092;8.542;2022-10-31T09:42:40;99671.19;;;20.22;53.10
9893;BME280;4985;49.092;8.542;2022-10-31T09:45:14;99672.00;;;20.23;53.10
9893;BME280;4985;49.092;8.542;2022-10-31T09:47:52;99671.19;;;20.22;53.13
9893;BME280;4985;49.092;8.542;2022-10-31T09:50:22;99670.59;;;20.20;53.17
9893;BME280;4985;49.092;8.542;2022-10-31T09:52:54;99675.09;;;20.20;53.18
9893;BME280;4985;49.092;8.542;2022-10-31T09:55:27;99677.78;;;20.20;53.20
9893;BME280;4985;49.092;8.542;2022-10-31T09:57:58;99674.28;;;20.19;53.20
9893;BME280;4985;49.092;8.542;2022-10-31T10:00:26;99667.09;;;20.20;53.22
9893;BME280;4985;49.092;8.542;2022-10-31T10:02:58;99659.28;;;20.18;53.22
9893;BME280;4985;49.092;8.542;2022-10-31T10:05:32;99659.28;;;20.18;53.24
9893;BME280;4985;49.092;8.542;2022-10-31T10:08:02;99653.94;;;20.18;53.23
9893;BME280;4985;49.092;8.542;2022-10-31T10:10:43;99651.28;;;20.18;53.26
9893;BME280;4985;49.092;8.542;2022-10-31T10:13:31;99647.78;;;20.18;53.25
9893;BME280;4985;49.092;8.542;2022-10-31T10:16:06;99650.47;;;20.18;53.26
9893;BME280;4985;49.092;8.542;2022-10-31T10:18:55;99648.81;;;20.17;53.28
9893;BME280;4985;49.092;8.542;2022-10-31T10:21:30;99653.34;;;20.16;53.34
9893;BME280;4985;49.092;8.542;2022-10-31T10:24:14;99641.00;;;20.15;53.35
9893;BME280;4985;49.092;8.542;2022-10-31T10:26:53;99640.81;;;20.17;53.37
9893;BME280;4985;49.092;8.542;2022-10-31T10:29:33;99635.66;;;20.15;53.39
9893;BME280;4985;49.092;8.542;2022-10-31T10:32:13;99632.97;;;20.15;53.45
9893;BME280;4985;49.092;8.542;2022-10-31T10:34:47;99634.63;;;20.16;53.43
9893;BME280;4985;49.092;8.542;2022-10-31T10:37:22;99632.78;;;20.17;53.40
9893;BME280;4985;49.092;8.542;2022-10-31T10:39:53;99630.94;;;20.17;53.42
9893;BME280;4985;49.092;8.542;2022-10-31T10:42:22;99630.94;;;20.17;53.44
9893;BME280;4985;49.092;8.542;2022-10-31T10:45:14;99626.63;;;20.16;53.44
9893;BME280;4985;49.092;8.542;2022-10-31T10:48:05;99619.59;;;20.15;53.48
9893;BME280;4985;49.092;8.542;2022-10-31T10:50:36;99622.09;;;20.17;53.51
9893;BME280;4985;49.092;8.542;2022-10-31T10:53:15;99618.38;;;20.18;53.48
9893;BME280;4985;49.092;8.542;2022-10-31T10:56:00;99614.88;;;20.17;53.47
9893;BME280;4985;49.092;8.542;2022-10-31T10:58:28;99616.53;;;20.18;53.48
9893;BME280;4985;49.092;8.542;2022-10-31T11:00:55;99616.53;;;20.18;53.49
9893;BME280;4985;49.092;8.542;2022-10-31T11:03:22;99606.66;;;20.19;53.50
9893;BME280;4985;49.092;8.542;2022-10-31T11:05:51;99600.50;;;20.18;53.47
9893;BME280;4985;49.092;8.542;2022-10-31T11:08:24;99592.47;;;20.18;53.48
9893;BME280;4985;49.092;8.542;2022-10-31T11:10:59;99592.47;;;20.18;53.51
9893;BME280;4985;49.092;8.542;2022-10-31T11:13:27;99591.44;;;20.19;53.47
9893;BME280;4985;49.092;8.542;2022-10-31T11:16:00;99580.75;;;20.19;53.47
9893;BME280;4985;49.092;8.542;2022-10-31T11:18:30;99575.38;;;20.19;53.52
9893;BME280;4985;49.092;8.542;2022-10-31T11:21:01;99565.75;;;20.18;53.49
9893;BME280;4985;49.092;8.542;2022-10-31T11:23:29;99570.03;;;20.19;53.50
9893;BME280;4985;49.092;8.542;2022-10-31T11:25:58;99565.53;;;20.20;53.48
9893;BME280;4985;49.092;8.542;2022-10-31T11:28:25;99564.69;;;20.19;53.48
9893;BME280;4985;49.092;8.542;2022-10-31T11:30:55;99559.34;;;20.19;53.49
9893;BME280;4985;49.092;8.542;2022-10-31T11:33:27;99554.81;;;20.20;53.48
9893;BME280;4985;49.092;8.542;2022-10-31T11:35:55;99566.34;;;20.20;53.49
9893;BME280;4985;49.092;8.542;2022-10-31T11:38:35;99559.81;;;20.16;53.51
9893;BME280;4985;49.092;8.542;2022-10-31T11:41:11;99561.81;;;20.21;53.50
9893;BME280;4985;49.092;8.542;2022-10-31T11:43:45;99551.94;;;20.21;53.50
9893;BME280;4985;49.092;8.542;2022-10-31T11:46:20;99551.13;;;20.21;53.50
9893;BME280;4985;49.092;8.542;2022-10-31T11:48:48;99546.59;;;20.21;53.48
9893;BME280;4985;49.092;8.542;2022-10-31T11:51:20;99554.38;;;20.23;53.47
9893;BME280;4985;49.092;8.542;2022-10-31T11:53:52;99551.47;;;20.24;53.45
9893;BME280;4985;49.092;8.542;2022-10-31T11:56:19;99539.16;;;20.23;53.45
9893;BME280;4985;49.092;8.542;2022-10-31T11:58:55;99535.44;;;20.24;53.46
9893;BME280;4985;49.092;8.542;2022-10-31T12:01:24;99531.13;;;20.23;53.45
9893;BME280;4985;49.092;8.542;2022-10-31T12:03:58;99539.97;;;20.24;53.47
9893;BME280;4985;49.092;8.542;2022-10-31T12:06:30;99533.81;;;20.23;53.47
9893;BME280;4985;49.092;8.542;2022-10-31T12:09:00;99538.13;;;20.24;53.49
9893;BME280;4985;49.092;8.542;2022-10-31T12:11:37;99529.28;;;20.24;53.50
9893;BME280;4985;49.092;8.542;2022-10-31T12:14:21;99526.59;;;20.24;53.49
9893;BME280;4985;49.092;8.542;2022-10-31T12:16:55;99532.78;;;20.24;53.48
9893;BME280;4985;49.092;8.542;2022-10-31T12:19:32;99533.81;;;20.23;53.52
9893;BME280;4985;49.092;8.542;2022-10-31T12:22:05;99533.00;;;20.23;53.50
9893;BME280;4985;49.092;8.542;2022-10-31T12:24:45;99526.84;;;20.22;53.54
9893;BME280;4985;49.092;8.542;2022-10-31T12:27:23;99523.94;;;20.24;53.53
9893;BME280;4985;49.092;8.542;2022-10-31T12:30:07;99507.06;;;20.23;53.54
9893;BME280;4985;49.092;8.542;2022-10-31T12:32:43;99497.22;;;20.24;53.54
9893;BME280;4985;49.092;8.542;2022-10-31T12:35:31;99496.38;;;20.23;53.52
9893;BME280;4985;49.092;8.542;2022-10-31T12:38:17;99501.72;;;20.23;53.52
9893;BME280;4985;49.092;8.542;2022-10-31T12:40:57;99499.06;;;20.23;53.54
9893;BME280;4985;49.092;8.542;2022-10-31T12:43:37;99495.34;;;20.24;53.56
9893;BME280;4985;49.092;8.542;2022-10-31T12:46:13;99488.16;;;20.25;53.54
9893;BME280;4985;49.092;8.542;2022-10-31T12:48:56;99477.44;;;20.25;53.52
9893;BME280;4985;49.092;8.542;2022-10-31T12:51:32;99464.09;;;20.25;53.51
9893;BME280;4985;49.092;8.542;2022-10-31T12:54:12;99464.91;;;20.25;53.48
9893;BME280;4985;49.092;8.542;2022-10-31T12:56:50;99457.69;;;20.26;53.47
9893;BME280;4985;49.092;8.542;2022-10-31T12:59:31;99446.81;;;20.27;53.49
9893;BME280;4985;49.092;8.542;2022-10-31T13:02:03;99444.94;;;20.28;53.46
9893;BME280;4985;49.092;8.542;2022-10-31T13:04:40;99439.59;;;20.28;53.47
9893;BME280;4985;49.092;8.542;2022-10-31T13:07:12;99437.94;;;20.27;53.48
9893;BME280;4985;49.092;8.542;2022-10-31T13:09:45;99435.88;;;20.29;53.47
9893;BME280;4985;49.092;8.542;2022-10-31T13:12:18;99420.66;;;20.29;53.45
9893;BME280;4985;49.092;8.542;2022-10-31T13:14:49;99421.47;;;20.30;53.45
9893;BME280;4985;49.092;8.542;2022-10-31T13:17:24;99409.97;;;20.29;53.42
9893;BME280;4985;49.092;8.542;2022-10-31T13:19:58;99414.28;;;20.30;53.44
9893;BME280;4985;49.092;8.542;2022-10-31T13:22:31;99410.78;;;20.30;53.43
9893;BME280;4985;49.092;8.542;2022-10-31T13:25:04;99411.59;;;20.30;53.45
9893;BME280;4985;49.092;8.542;2022-10-31T13:27:43;99410.41;;;20.26;53.43
9893;BME280;4985;49.092;8.542;2022-10-31T13:30:15;99416.13;;;20.30;53.44
9893;BME280;4985;49.092;8.542;2022-10-31T13:32:46;99425.78;;;20.31;53.43
9893;BME280;4985;49.092;8.542;2022-10-31T13:35:20;99423.94;;;20.31;53.42
9893;BME280;4985;49.092;8.542;2022-10-31T13:37:56;99417.19;;;20.29;53.43